createdAt,value
2019-06-07T00:00:56.348Z,1002.66
2019-06-07T00:01:56.312Z,1002.67
2019-06-07T00:02:56.299Z,1002.65
2019-06-07T00:03:56.282Z,1002.68
2019-06-07T00:04:56.291Z,1002.67
2019-06-07T00:05:56.333Z,1002.69
2019-06-07T00:06:56.246Z,1002.66
2019-06-07T00:08:07.016Z,1002.63
2019-06-07T00:08:56.268Z,1002.59
2019-06-07T00:09:56.197Z,1002.60
2019-06-07T00:10:56.188Z,1002.59
2019-06-07T00:11:56.203Z,1002.58
2019-06-07T00:12:56.169Z,1002.57
2019-06-07T00:13:56.146Z,1002.61
2019-06-07T00:14:56.200Z,1002.57
2019-06-07T00:15:56.168Z,1002.61
2019-06-07T00:16:56.169Z,1002.61
2019-06-07T00:17:56.096Z,1002.59
2019-06-07T00:18:56.083Z,1002.64
2019-06-07T00:19:56.068Z,1002.63
2019-06-07T00:20:56.734Z,1002.64
2019-06-07T00:22:56.071Z,1002.64
2019-06-07T00:23:56.017Z,1002.62
2019-06-07T00:24:56.040Z,1002.61
2019-06-07T00:25:55.990Z,1002.59
2019-06-07T00:26:59.025Z,1002.59
2019-06-07T00:27:55.993Z,1002.57
2019-06-07T00:28:55.951Z,1002.58
2019-06-07T00:29:55.968Z,1002.59
2019-06-07T00:30:55.926Z,1002.59
2019-06-07T00:31:55.912Z,1002.56
2019-06-07T00:32:55.905Z,1002.58
2019-06-07T00:33:56.337Z,1002.57
2019-06-07T00:34:55.908Z,1002.60
2019-06-07T00:35:55.867Z,1002.59
2019-06-07T00:36:56.022Z,1002.55
2019-06-07T00:37:55.831Z,1002.57
2019-06-07T00:38:55.817Z,1002.54
2019-06-07T00:40:13.439Z,1002.52
2019-06-07T00:40:55.795Z,1002.51
2019-06-07T00:41:55.782Z,1002.49
2019-06-07T00:42:55.792Z,1002.50
2019-06-07T00:43:55.760Z,1002.50
2019-06-07T00:44:55.745Z,1002.47
2019-06-07T00:45:55.772Z,1002.44
2019-06-07T00:46:55.715Z,1002.45
2019-06-07T00:47:55.740Z,1002.38
2019-06-07T00:48:55.696Z,1002.39
2019-06-07T00:49:55.675Z,1002.44
2019-06-07T00:50:55.697Z,1002.42
2019-06-07T00:51:56.356Z,1002.42
2019-06-07T00:53:14.525Z,1002.45
2019-06-07T00:53:55.631Z,1002.41
2019-06-07T00:54:55.641Z,1002.42
2019-06-07T00:55:55.584Z,1002.45
2019-06-07T00:56:55.579Z,1002.45
2019-06-07T00:57:55.564Z,1002.47
2019-06-07T00:59:10.759Z,1002.48
2019-06-07T00:59:55.575Z,1002.46
2019-06-07T01:00:55.543Z,1002.50
2019-06-07T01:01:55.520Z,1002.47
2019-06-07T01:02:55.530Z,1002.44
2019-06-07T01:03:55.490Z,1002.47
2019-06-07T01:04:55.529Z,1002.47
2019-06-07T01:05:55.462Z,1002.49
2019-06-07T01:06:55.444Z,1002.48
2019-06-07T01:07:55.440Z,1002.52
2019-06-07T01:08:55.551Z,1002.51
2019-06-07T01:09:55.407Z,1002.50
2019-06-07T01:10:55.398Z,1002.51
2019-06-07T01:11:55.424Z,1002.56
2019-06-07T01:12:55.365Z,1002.47
2019-06-07T01:13:55.394Z,1002.50
2019-06-07T01:14:55.376Z,1002.48
2019-06-07T01:15:55.328Z,1002.48
2019-06-07T01:17:05.519Z,1002.43
2019-06-07T01:18:55.289Z,1002.36
2019-06-07T01:19:55.344Z,1002.35
2019-06-07T01:20:55.259Z,1002.35
2019-06-07T01:21:55.243Z,1002.33
2019-06-07T01:22:55.229Z,1002.28
2019-06-07T01:24:10.623Z,1002.28
2019-06-07T01:24:55.199Z,1002.28
2019-06-07T01:25:55.355Z,1002.28
2019-06-07T01:26:55.173Z,1002.29
2019-06-07T01:27:55.160Z,1002.25
2019-06-07T01:28:55.198Z,1002.25
2019-06-07T01:29:55.134Z,1002.21
2019-06-07T01:30:55.118Z,1002.20
2019-06-07T01:31:55.116Z,1002.21
2019-06-07T01:32:55.102Z,1002.23
2019-06-07T01:33:55.087Z,1002.23
2019-06-07T01:34:55.077Z,1002.23
2019-06-07T01:35:55.056Z,1002.24
2019-06-07T01:36:55.077Z,1002.24
2019-06-07T01:37:55.036Z,1002.26
2019-06-07T01:38:55.012Z,1002.27
2019-06-07T01:39:54.996Z,1002.24
2019-06-07T01:40:54.987Z,1002.24
2019-06-07T01:41:54.991Z,1002.23
2019-06-07T01:42:55.018Z,1002.20
2019-06-07T01:43:54.952Z,1002.22
2019-06-07T01:44:54.941Z,1002.20
2019-06-07T01:45:54.920Z,1002.16
2019-06-07T01:46:54.909Z,1002.13
2019-06-07T01:47:54.960Z,1002.10
2019-06-07T01:48:54.911Z,1002.11
2019-06-07T01:49:54.865Z,1002.15
2019-06-07T01:50:54.857Z,1002.18
2019-06-07T01:51:54.844Z,1002.16
2019-06-07T01:52:54.856Z,1002.16
2019-06-07T01:54:41.274Z,1002.15
2019-06-07T01:54:58.417Z,1002.18
2019-06-07T01:55:54.793Z,1002.15
2019-06-07T01:57:01.487Z,1002.13
2019-06-07T01:57:54.807Z,1002.10
2019-06-07T01:58:54.785Z,1002.07
2019-06-07T01:59:54.740Z,1002.06
2019-06-07T02:00:54.724Z,1002.04
2019-06-07T02:01:54.712Z,1001.94
2019-06-07T02:02:54.708Z,1001.96
2019-06-07T02:03:54.716Z,1001.92
2019-06-07T02:04:54.667Z,1001.89
2019-06-07T02:05:54.686Z,1001.91
2019-06-07T02:06:54.646Z,1001.89
2019-06-07T02:07:54.629Z,1001.88
2019-06-07T02:08:54.613Z,1001.92
2019-06-07T02:09:54.631Z,1001.90
2019-06-07T02:10:54.586Z,1001.92
2019-06-07T02:11:54.576Z,1001.94
2019-06-07T02:12:54.596Z,1001.90
2019-06-07T02:13:54.545Z,1001.92
2019-06-07T02:14:54.548Z,1001.90
2019-06-07T02:15:54.547Z,1001.92
2019-06-07T02:16:54.510Z,1001.90
2019-06-07T02:17:54.525Z,1001.90
2019-06-07T02:19:01.731Z,1001.89
2019-06-07T02:19:54.460Z,1001.87
2019-06-07T02:20:54.453Z,1001.88
2019-06-07T02:21:54.439Z,1001.85
2019-06-07T02:22:54.453Z,1001.86
2019-06-07T02:23:54.410Z,1001.83
2019-06-07T02:25:34.726Z,1001.81
2019-06-07T02:25:54.399Z,1001.78
2019-06-07T02:26:54.373Z,1001.78
2019-06-07T02:28:10.992Z,1001.77
2019-06-07T02:28:54.334Z,1001.79
2019-06-07T02:29:54.367Z,1001.78
2019-06-07T02:31:00.169Z,1001.81
2019-06-07T02:31:54.315Z,1001.83
2019-06-07T02:32:54.289Z,1001.83
2019-06-07T02:33:54.321Z,1001.86
2019-06-07T02:34:54.304Z,1001.83
2019-06-07T02:35:54.252Z,1001.87
2019-06-07T02:36:54.238Z,1001.88
2019-06-07T02:37:54.229Z,1001.88
2019-06-07T02:38:54.216Z,1001.89
2019-06-07T02:39:54.208Z,1001.89
2019-06-07T02:40:54.213Z,1001.86
2019-06-07T02:41:54.170Z,1001.86
2019-06-07T02:42:54.150Z,1001.83
2019-06-07T02:43:54.150Z,1001.79
2019-06-07T02:44:54.125Z,1001.78
2019-06-07T02:45:54.248Z,1001.76
2019-06-07T02:46:54.105Z,1001.70
2019-06-07T02:47:54.081Z,1001.69
2019-06-07T02:48:54.125Z,1001.71
2019-06-07T02:49:54.069Z,1001.68
2019-06-07T02:50:54.040Z,1001.69
2019-06-07T02:51:54.050Z,1001.68
2019-06-07T02:52:54.015Z,1001.65
2019-06-07T02:53:54.000Z,1001.68
2019-06-07T02:54:53.988Z,1001.65
2019-06-07T02:56:58.831Z,1001.65
2019-06-07T02:57:53.947Z,1001.64
2019-06-07T02:58:53.950Z,1001.64
2019-06-07T03:00:07.537Z,1001.62
2019-06-07T03:01:06.730Z,1001.57
2019-06-07T03:01:53.914Z,1001.56
2019-06-07T03:02:53.939Z,1001.55
2019-06-07T03:03:53.928Z,1001.54
2019-06-07T03:04:53.855Z,1001.51
2019-06-07T03:05:53.843Z,1001.50
2019-06-07T03:06:53.817Z,1001.51
2019-06-07T03:07:53.817Z,1001.48
2019-06-07T03:08:53.794Z,1001.50
2019-06-07T03:09:53.789Z,1001.52
2019-06-07T03:10:53.790Z,1001.54
2019-06-07T03:11:53.760Z,1001.54
2019-06-07T03:12:53.741Z,1001.59
2019-06-07T03:13:53.795Z,1001.61
2019-06-07T03:14:53.712Z,1001.65
2019-06-07T03:15:53.706Z,1001.62
2019-06-07T03:16:53.689Z,1001.66
2019-06-07T03:17:53.683Z,1001.70
2019-06-07T03:18:53.659Z,1001.70
2019-06-07T03:19:53.674Z,1001.67
2019-06-07T03:21:04.925Z,1001.66
2019-06-07T03:21:53.615Z,1001.66
2019-06-07T03:22:53.613Z,1001.65
2019-06-07T03:23:53.620Z,1001.67
2019-06-07T03:24:53.580Z,1001.71
2019-06-07T03:25:53.567Z,1001.75
2019-06-07T03:27:53.536Z,1001.78
2019-06-07T03:28:53.551Z,1001.80
2019-06-07T03:29:53.537Z,1001.85
2019-06-07T03:31:02.400Z,1001.84
2019-06-07T03:31:53.484Z,1001.85
2019-06-07T03:32:53.467Z,1001.86
2019-06-07T03:33:54.422Z,1001.90
2019-06-07T03:34:53.487Z,1001.90
2019-06-07T03:35:53.466Z,1001.95
2019-06-07T03:36:53.431Z,1001.93
2019-06-07T03:37:53.407Z,1001.95
2019-06-07T03:38:53.407Z,1001.95
2019-06-07T03:39:53.416Z,1001.95
2019-06-07T03:40:53.401Z,1001.95
2019-06-07T03:42:05.888Z,1001.92
2019-06-07T03:42:53.335Z,1001.95
2019-06-07T03:43:53.334Z,1001.95
2019-06-07T03:44:53.434Z,1001.95
2019-06-07T03:45:53.573Z,1001.96
2019-06-07T03:46:53.310Z,1001.94
2019-06-07T03:47:53.271Z,1001.97
2019-06-07T03:48:53.285Z,1001.96
2019-06-07T03:49:53.250Z,1001.95
2019-06-07T03:51:04.085Z,1001.99
2019-06-07T03:51:53.217Z,1001.93
2019-06-07T03:52:53.186Z,1001.92
2019-06-07T03:53:53.181Z,1001.90
2019-06-07T03:54:53.201Z,1001.88
2019-06-07T03:55:53.146Z,1001.91
2019-06-07T03:56:53.168Z,1001.92
2019-06-07T03:58:53.132Z,1001.98
2019-06-07T03:59:53.101Z,1001.99
2019-06-07T04:00:53.100Z,1002.01
2019-06-07T04:01:53.087Z,1002.02
2019-06-07T04:02:53.059Z,1001.99
2019-06-07T04:03:53.035Z,1001.99
2019-06-07T04:04:53.028Z,1001.98
2019-06-07T04:05:53.008Z,1002.02
2019-06-07T04:06:53.031Z,1002.01
2019-06-07T04:07:52.985Z,1002.01
2019-06-07T04:08:52.976Z,1002.00
2019-06-07T04:09:52.961Z,1002.02
2019-06-07T04:10:59.601Z,1002.00
2019-06-07T04:11:52.941Z,1002.02
2019-06-07T04:12:52.929Z,1002.00
2019-06-07T04:13:52.966Z,1002.03
2019-06-07T04:14:52.886Z,1002.01
2019-06-07T04:15:52.927Z,1002.04
2019-06-07T04:16:52.856Z,1001.98
2019-06-07T04:18:01.847Z,1002.07
2019-06-07T04:18:53.008Z,1002.05
2019-06-07T04:19:52.805Z,1002.04
2019-06-07T04:20:52.841Z,1002.00
2019-06-07T04:21:52.784Z,1002.00
2019-06-07T04:22:52.773Z,1001.95
2019-06-07T04:23:52.752Z,1001.95
2019-06-07T04:24:52.745Z,1001.89
2019-06-07T04:25:52.734Z,1001.93
2019-06-07T04:26:52.718Z,1001.96
2019-06-07T04:27:52.697Z,1001.94
2019-06-07T04:29:31.611Z,1001.91
2019-06-07T04:30:06.862Z,1001.92
2019-06-07T04:30:52.686Z,1001.89
2019-06-07T04:31:52.680Z,1001.87
2019-06-07T04:32:52.631Z,1001.89
2019-06-07T04:33:52.613Z,1001.84
2019-06-07T04:34:52.601Z,1001.84
2019-06-07T04:35:52.618Z,1001.84
2019-06-07T04:36:59.070Z,1001.85
2019-06-07T04:37:52.556Z,1001.82
2019-06-07T04:38:52.544Z,1001.87
2019-06-07T04:39:53.804Z,1001.83
2019-06-07T04:40:52.513Z,1001.86
2019-06-07T04:41:52.510Z,1001.84
2019-06-07T04:42:52.504Z,1001.86
2019-06-07T04:43:52.513Z,1001.88
2019-06-07T04:44:52.473Z,1001.91
2019-06-07T04:45:52.446Z,1001.95
2019-06-07T04:46:52.447Z,1002.02
2019-06-07T04:47:52.416Z,1001.99
2019-06-07T04:48:52.468Z,1002.02
2019-06-07T04:49:52.404Z,1002.06
2019-06-07T04:50:52.515Z,1002.06
2019-06-07T04:51:52.363Z,1002.05
2019-06-07T04:52:52.351Z,1002.07
2019-06-07T04:53:52.332Z,1002.04
2019-06-07T04:54:52.333Z,1002.00
2019-06-07T04:55:52.309Z,1002.01
2019-06-07T04:56:52.361Z,1002.03
2019-06-07T04:57:52.308Z,1001.98
2019-06-07T04:58:52.264Z,1002.02
2019-06-07T05:00:11.763Z,1002.07
2019-06-07T05:00:59.128Z,1002.10
2019-06-07T05:01:52.228Z,1002.10
2019-06-07T05:02:52.244Z,1002.08
2019-06-07T05:03:52.199Z,1002.07
2019-06-07T05:04:52.198Z,1002.07
2019-06-07T05:05:52.232Z,1002.07
2019-06-07T05:06:52.165Z,1002.09
2019-06-07T05:07:52.173Z,1002.07
2019-06-07T05:08:52.162Z,1002.02
2019-06-07T05:09:52.123Z,1002.01
2019-06-07T05:10:52.137Z,1001.96
2019-06-07T05:11:52.102Z,1001.97
2019-06-07T05:12:52.156Z,1001.88
2019-06-07T05:13:52.125Z,1001.85
2019-06-07T05:14:52.050Z,1001.85
2019-06-07T05:15:52.035Z,1001.82
2019-06-07T05:16:52.027Z,1001.83
2019-06-07T05:17:52.012Z,1001.84
2019-06-07T05:18:52.046Z,1001.81
2019-06-07T05:19:51.990Z,1001.78
2019-06-07T05:20:51.972Z,1001.77
2019-06-07T05:22:03.674Z,1001.74
2019-06-07T05:22:51.950Z,1001.73
2019-06-07T05:24:10.336Z,1001.68
2019-06-07T05:24:51.977Z,1001.68
2019-06-07T05:25:51.905Z,1001.68
2019-06-07T05:26:51.879Z,1001.64
2019-06-07T05:27:51.878Z,1001.66
2019-06-07T05:28:52.011Z,1001.60
2019-06-07T05:30:09.496Z,1001.65
2019-06-07T05:31:04.007Z,1001.66
2019-06-07T05:31:51.825Z,1001.68
2019-06-07T05:32:51.836Z,1001.71
2019-06-07T05:33:51.796Z,1001.65
2019-06-07T05:34:51.786Z,1001.66
2019-06-07T05:35:51.792Z,1001.65
2019-06-07T05:37:10.513Z,1001.66
2019-06-07T05:37:51.756Z,1001.67
2019-06-07T05:38:51.745Z,1001.68
2019-06-07T05:39:51.724Z,1001.72
2019-06-07T05:40:51.725Z,1001.72
2019-06-07T05:41:51.702Z,1001.67
2019-06-07T05:42:51.684Z,1001.63
2019-06-07T05:44:11.231Z,1001.63
2019-06-07T05:44:51.648Z,1001.66
2019-06-07T05:45:51.654Z,1001.65
2019-06-07T05:46:51.633Z,1001.66
2019-06-07T05:47:51.617Z,1001.69
2019-06-07T05:48:51.602Z,1001.74
2019-06-07T05:49:51.614Z,1001.74
2019-06-07T05:50:57.001Z,1001.75
2019-06-07T05:51:51.594Z,1001.73
2019-06-07T05:52:51.596Z,1001.73
2019-06-07T05:53:51.544Z,1001.67
2019-06-07T05:54:51.516Z,1001.64
2019-06-07T05:55:51.521Z,1001.66
2019-06-07T05:56:51.530Z,1001.64
2019-06-07T05:57:51.488Z,1001.67
2019-06-07T05:58:51.499Z,1001.63
2019-06-07T05:59:51.468Z,1001.67
2019-06-07T06:00:51.527Z,1001.66
2019-06-07T06:02:02.089Z,1001.67
2019-06-07T06:03:04.080Z,1001.63
2019-06-07T06:03:51.418Z,1001.60
2019-06-07T06:04:51.402Z,1001.55
2019-06-07T06:05:55.205Z,1001.57
2019-06-07T06:06:51.428Z,1001.57
2019-06-07T06:07:51.361Z,1001.54
2019-06-07T06:08:51.342Z,1001.56
2019-06-07T06:09:51.328Z,1001.56
2019-06-07T06:10:51.312Z,1001.54
2019-06-07T06:12:01.704Z,1001.55
2019-06-07T06:12:52.071Z,1001.55
2019-06-07T06:14:06.656Z,1001.56
2019-06-07T06:14:51.273Z,1001.51
2019-06-07T06:16:01.169Z,1001.52
2019-06-07T06:16:51.375Z,1001.49
2019-06-07T06:17:53.974Z,1001.50
2019-06-07T06:18:51.209Z,1001.49
2019-06-07T06:19:53.399Z,1001.49
2019-06-07T06:21:17.900Z,1001.51
2019-06-07T06:21:51.178Z,1001.55
2019-06-07T06:22:51.319Z,1001.54
2019-06-07T06:23:52.212Z,1001.59
2019-06-07T06:25:30.030Z,1001.60
2019-06-07T06:25:56.954Z,1001.61
2019-06-07T06:26:55.190Z,1001.58
2019-06-07T06:28:12.075Z,1001.62
2019-06-07T06:28:51.108Z,1001.61
2019-06-07T06:29:52.454Z,1001.55
2019-06-07T06:30:51.059Z,1001.54
2019-06-07T06:32:39.407Z,1001.56
2019-06-07T06:32:57.792Z,1001.59
2019-06-07T06:33:51.059Z,1001.58
2019-06-07T06:34:53.890Z,1001.54
2019-06-07T06:35:51.167Z,1001.56
2019-06-07T06:36:50.981Z,1001.55
2019-06-07T06:37:53.350Z,1001.54
2019-06-07T06:38:51.526Z,1001.51
2019-06-07T06:39:50.948Z,1001.53
2019-06-07T06:41:11.516Z,1001.47
2019-06-07T06:42:01.007Z,1001.50
2019-06-07T06:42:50.914Z,1001.48
2019-06-07T06:43:52.722Z,1001.53
2019-06-07T06:44:54.049Z,1001.53
2019-06-07T06:45:50.874Z,1001.54
2019-06-07T06:46:57.539Z,1001.52
2019-06-07T06:47:50.857Z,1001.56
2019-06-07T06:48:54.731Z,1001.55
2019-06-07T06:49:54.327Z,1001.52
2019-06-07T06:50:52.678Z,1001.52
2019-06-07T06:51:53.612Z,1001.46
2019-06-07T06:52:54.433Z,1001.43
2019-06-07T06:53:52.536Z,1001.44
2019-06-07T06:54:59.357Z,1001.42
2019-06-07T06:55:51.399Z,1001.42
2019-06-07T06:56:52.800Z,1001.44
2019-06-07T06:57:51.407Z,1001.37
2019-06-07T06:59:33.077Z,1001.32
2019-06-07T06:59:52.630Z,1001.35
2019-06-07T07:01:04.796Z,1001.37
2019-06-07T07:01:52.583Z,1001.33
2019-06-07T07:03:39.305Z,1001.31
2019-06-07T07:04:11.415Z,1001.35
2019-06-07T07:04:53.394Z,1001.37
2019-06-07T07:05:54.264Z,1001.36
2019-06-07T07:06:53.088Z,1001.37
2019-06-07T07:07:52.895Z,1001.39
2019-06-07T07:08:51.419Z,1001.40
2019-06-07T07:09:57.317Z,1001.40
2019-06-07T07:10:53.189Z,1001.37
2019-06-07T07:12:03.358Z,1001.38
2019-06-07T07:12:52.419Z,1001.34
2019-06-07T07:13:56.268Z,1001.35
2019-06-07T07:14:55.158Z,1001.36
2019-06-07T07:15:55.725Z,1001.36
2019-06-07T07:16:54.579Z,1001.41
2019-06-07T07:18:03.563Z,1001.38
2019-06-07T07:18:52.927Z,1001.37
2019-06-07T07:19:52.436Z,1001.35
2019-06-07T07:20:53.472Z,1001.35
2019-06-07T07:21:53.063Z,1001.31
2019-06-07T07:22:56.401Z,1001.30
2019-06-07T07:24:14.651Z,1001.31
2019-06-07T07:24:53.360Z,1001.34
2019-06-07T07:25:55.541Z,1001.35
2019-06-07T07:26:52.832Z,1001.35
2019-06-07T07:27:54.947Z,1001.35
2019-06-07T07:28:51.830Z,1001.32
2019-06-07T07:29:59.801Z,1001.34
2019-06-07T07:30:54.834Z,1001.35
2019-06-07T07:31:53.507Z,1001.29
2019-06-07T07:32:52.858Z,1001.34
2019-06-07T07:34:54.865Z,1001.30
2019-06-07T07:36:13.915Z,1001.26
2019-06-07T07:36:54.089Z,1001.24
2019-06-07T07:37:57.025Z,1001.26
2019-06-07T07:38:55.760Z,1001.27
2019-06-07T07:39:54.107Z,1001.24
2019-06-07T07:41:08.919Z,1001.24
2019-06-07T07:42:13.701Z,1001.22
2019-06-07T07:42:53.342Z,1001.24
2019-06-07T07:43:59.493Z,1001.22
2019-06-07T07:44:53.729Z,1001.20
2019-06-07T07:45:54.690Z,1001.19
2019-06-07T07:46:52.761Z,1001.15
2019-06-07T07:48:10.593Z,1001.09
2019-06-07T07:48:52.967Z,1001.12
2019-06-07T07:49:53.019Z,1001.08
2019-06-07T07:50:54.462Z,1001.08
2019-06-07T07:51:55.049Z,1001.09
2019-06-07T07:52:59.205Z,1001.08
2019-06-07T07:54:04.282Z,1001.05
2019-06-07T07:54:52.836Z,1001.04
2019-06-07T07:55:53.826Z,1001.04
2019-06-07T07:56:51.691Z,1001.02
2019-06-07T07:57:58.145Z,1000.99
2019-06-07T07:58:54.569Z,1001.03
2019-06-07T08:00:09.485Z,1001.03
2019-06-07T08:00:56.166Z,1001.01
2019-06-07T08:01:53.071Z,1000.98
2019-06-07T08:02:53.272Z,1000.97
2019-06-07T08:03:50.709Z,1000.99
2019-06-07T08:05:20.549Z,1000.97
2019-06-07T08:05:52.012Z,1001.03
2019-06-07T08:06:53.317Z,1001.01
2019-06-07T08:07:53.503Z,1001.05
2019-06-07T08:08:51.303Z,1001.05
2019-06-07T08:09:51.430Z,1001.07
2019-06-07T08:10:51.972Z,1001.02
2019-06-07T08:11:52.097Z,1000.93
2019-06-07T08:13:12.912Z,1000.96
2019-06-07T08:13:50.598Z,1000.93
2019-06-07T08:14:51.212Z,1000.90
2019-06-07T08:15:53.346Z,1000.94
2019-06-07T08:16:49.828Z,1000.87
2019-06-07T08:17:51.583Z,1000.88
2019-06-07T08:18:53.375Z,1000.87
2019-06-07T08:19:51.601Z,1000.87
2019-06-07T08:21:08.724Z,1000.83
2019-06-07T08:21:50.646Z,1000.82
2019-06-07T08:22:50.072Z,1000.80
2019-06-07T08:23:51.616Z,1000.80
2019-06-07T08:24:50.439Z,1000.74
2019-06-07T08:25:51.876Z,1000.69
2019-06-07T08:27:12.316Z,1000.65
2019-06-07T08:27:51.854Z,1000.67
2019-06-07T08:28:53.235Z,1000.63
2019-06-07T08:30:08.976Z,1000.63
2019-06-07T08:30:56.771Z,1000.64
2019-06-07T08:31:52.902Z,1000.61
2019-06-07T08:32:53.075Z,1000.63
2019-06-07T08:33:50.206Z,1000.58
2019-06-07T08:34:52.614Z,1000.57
2019-06-07T08:36:19.369Z,1000.55
2019-06-07T08:36:51.662Z,1000.51
2019-06-07T08:38:21.531Z,1000.48
2019-06-07T08:38:54.194Z,1000.49
2019-06-07T08:39:50.413Z,1000.46
2019-06-07T08:40:54.619Z,1000.49
2019-06-07T08:42:14.363Z,1000.48
2019-06-07T08:43:10.843Z,1000.48
2019-06-07T08:46:08.236Z,1000.53
2019-06-07T08:47:19.819Z,1000.50
2019-06-07T08:48:26.675Z,1000.54
2019-06-07T08:51:28.990Z,1000.54
2019-06-07T08:52:28.956Z,1000.55
2019-06-07T08:53:28.916Z,1000.49
2019-06-07T08:54:29.099Z,1000.46
2019-06-07T08:55:28.908Z,1000.47
2019-06-07T08:56:28.875Z,1000.48
2019-06-07T08:57:28.855Z,1000.44
2019-06-07T08:58:29.125Z,1000.47
2019-06-07T08:59:42.664Z,1000.49
2019-06-07T09:00:45.682Z,1000.46
2019-06-07T09:01:28.920Z,1000.45
2019-06-07T09:02:28.811Z,1000.41
2019-06-07T09:03:28.803Z,1000.33
2019-06-07T09:04:28.803Z,1000.33
2019-06-07T09:05:29.619Z,1000.32
2019-06-07T09:07:01.841Z,1000.32
2019-06-07T09:07:28.749Z,1000.26
2019-06-07T09:08:30.826Z,1000.34
2019-06-07T09:09:28.733Z,1000.35
2019-06-07T09:10:28.727Z,1000.34
2019-06-07T09:11:28.776Z,1000.33
2019-06-07T09:12:28.706Z,1000.31
2019-06-07T09:13:28.703Z,1000.26
2019-06-07T09:14:28.694Z,1000.29
2019-06-07T09:15:28.687Z,1000.28
2019-06-07T09:16:28.669Z,1000.26
2019-06-07T09:17:28.694Z,1000.26
2019-06-07T09:18:41.865Z,1000.29
2019-06-07T09:19:28.654Z,1000.26
2019-06-07T09:20:37.079Z,1000.24
2019-06-07T09:21:28.669Z,1000.29
2019-06-07T09:22:28.717Z,1000.23
2019-06-07T09:23:29.610Z,1000.23
2019-06-07T09:24:28.635Z,1000.18
2019-06-07T09:25:28.634Z,1000.17
2019-06-07T09:26:28.626Z,1000.14
2019-06-07T09:27:29.173Z,1000.13
2019-06-07T09:28:28.617Z,1000.14
2019-06-07T09:29:28.593Z,1000.16
2019-06-07T09:30:28.582Z,1000.14
2019-06-07T09:31:51.376Z,1000.13
2019-06-07T09:32:28.618Z,1000.13
2019-06-07T09:33:28.581Z,1000.11
2019-06-07T09:34:29.103Z,1000.13
2019-06-07T09:35:37.152Z,1000.05
2019-06-07T09:36:28.642Z,1000.02
2019-06-07T09:38:28.897Z,999.98
2019-06-07T09:39:33.492Z,999.94
2019-06-07T09:40:29.136Z,999.91
2019-06-07T09:41:46.812Z,999.87
2019-06-07T09:42:28.514Z,999.87
2019-06-07T09:44:00.761Z,999.85
2019-06-07T09:44:40.807Z,999.89
2019-06-07T09:45:28.607Z,999.85
2019-06-07T09:46:28.514Z,999.88
2019-06-07T09:47:43.365Z,999.85
2019-06-07T09:49:09.730Z,999.83
2019-06-07T09:49:32.559Z,999.83
2019-06-07T09:51:01.978Z,999.76
2019-06-07T09:51:28.859Z,999.81
2019-06-07T09:52:28.509Z,999.78
2019-06-07T09:53:28.515Z,999.70
2019-06-07T09:55:03.860Z,999.74
2019-06-07T09:55:28.441Z,999.76
2019-06-07T09:56:37.286Z,999.59
2019-06-07T09:57:41.673Z,999.73
2019-06-07T09:58:51.010Z,999.69
2019-06-07T09:59:28.625Z,999.61
2019-06-07T10:00:44.074Z,999.66
2019-06-07T10:01:29.227Z,999.66
2019-06-07T10:02:29.424Z,999.67
2019-06-07T10:03:29.256Z,999.53
2019-06-07T10:04:31.529Z,999.55
2019-06-07T10:05:29.263Z,999.59
2019-06-07T10:06:30.742Z,999.50
2019-06-07T10:07:31.643Z,999.56
2019-06-07T10:11:29.489Z,999.46
2019-06-07T10:12:29.222Z,999.37
2019-06-07T10:13:29.043Z,999.55
2019-06-07T10:14:28.677Z,999.40
2019-06-07T10:15:29.409Z,999.44
2019-06-07T10:16:32.957Z,999.43
2019-06-07T10:17:42.559Z,999.41
2019-06-07T10:18:28.969Z,999.37
2019-06-07T10:19:28.735Z,999.54
2019-06-07T10:20:28.322Z,999.51
2019-06-07T10:21:28.399Z,999.38
2019-06-07T10:22:28.310Z,999.47
2019-06-07T10:23:28.323Z,999.43
2019-06-07T10:24:28.338Z,999.42
2019-06-07T10:25:28.337Z,999.34
2019-06-07T10:26:28.819Z,999.41
2019-06-07T10:27:28.305Z,999.38
2019-06-07T10:28:28.300Z,999.37
2019-06-07T10:29:28.324Z,999.37
2019-06-07T10:30:28.337Z,999.31
2019-06-07T10:31:35.742Z,999.43
2019-06-07T10:32:28.362Z,999.51
2019-06-07T10:33:28.305Z,999.48
2019-06-07T10:34:28.301Z,999.60
2019-06-07T10:35:28.541Z,999.64
2019-06-07T10:36:28.310Z,999.58
2019-06-07T10:37:28.284Z,999.57
2019-06-07T10:38:28.281Z,999.63
2019-06-07T10:39:28.294Z,999.82
2019-06-07T10:40:28.315Z,999.65
2019-06-07T10:41:28.280Z,999.44
2019-06-07T10:42:28.368Z,999.27
2019-06-07T10:43:28.291Z,999.18
2019-06-07T10:44:28.291Z,999.11
2019-06-07T10:45:28.291Z,999.15
2019-06-07T10:46:28.294Z,999.12
2019-06-07T10:47:28.297Z,999.16
2019-06-07T10:48:28.288Z,999.21
2019-06-07T10:49:28.285Z,999.28
2019-06-07T10:50:28.293Z,999.35
2019-06-07T10:51:28.303Z,999.45
2019-06-07T10:52:28.290Z,999.57
2019-06-07T10:53:28.861Z,999.48
2019-06-07T10:54:30.682Z,999.52
2019-06-07T10:55:28.298Z,999.59
2019-06-07T10:56:28.308Z,999.56
2019-06-07T10:57:29.876Z,999.64
2019-06-07T10:58:28.324Z,999.67
2019-06-07T10:59:28.310Z,999.48
2019-06-07T11:00:28.349Z,999.15
2019-06-07T11:01:28.313Z,998.90
2019-06-07T11:02:28.325Z,998.85
2019-06-07T11:03:28.312Z,998.82
2019-06-07T11:04:28.614Z,998.81
2019-06-07T11:05:28.351Z,998.79
2019-06-07T11:06:28.333Z,998.88
2019-06-07T11:07:28.324Z,998.87
2019-06-07T11:08:28.410Z,999.15
2019-06-07T11:09:28.318Z,998.85
2019-06-07T11:10:28.317Z,999.12
2019-06-07T11:11:28.403Z,999.24
2019-06-07T11:12:28.327Z,998.97
2019-06-07T11:13:28.329Z,998.85
2019-06-07T11:14:28.339Z,998.87
2019-06-07T11:15:28.332Z,998.83
2019-06-07T11:16:28.319Z,998.81
2019-06-07T11:17:28.315Z,998.74
2019-06-07T11:18:28.331Z,999.00
2019-06-07T11:19:28.462Z,999.08
2019-06-07T11:20:28.327Z,999.11
2019-06-07T11:21:28.324Z,999.22
2019-06-07T11:22:28.312Z,999.24
2019-06-07T11:23:28.310Z,999.20
2019-06-07T11:24:28.313Z,999.33
2019-06-07T11:25:28.874Z,999.37
2019-06-07T11:26:28.366Z,999.37
2019-06-07T11:27:28.334Z,999.12
2019-06-07T11:28:28.313Z,998.78
2019-06-07T11:29:29.961Z,999.16
2019-06-07T11:30:28.971Z,999.32
2019-06-07T11:31:28.329Z,999.27
2019-06-07T11:32:28.434Z,999.25
2019-06-07T11:33:28.331Z,998.64
2019-06-07T11:34:28.316Z,998.64
2019-06-07T11:35:28.314Z,998.88
2019-06-07T11:36:28.332Z,998.57
2019-06-07T11:37:28.398Z,998.98
2019-06-07T11:38:28.361Z,999.22
2019-06-07T11:39:28.337Z,998.53
2019-06-07T11:40:35.701Z,998.51
2019-06-07T11:41:28.337Z,998.56
2019-06-07T11:42:28.326Z,999.21
2019-06-07T11:43:28.349Z,999.22
2019-06-07T11:44:28.331Z,999.05
2019-06-07T11:45:28.325Z,999.25
2019-06-07T11:46:28.341Z,999.17
2019-06-07T11:47:28.465Z,998.87
2019-06-07T11:48:28.327Z,998.52
2019-06-07T11:49:28.343Z,998.41
2019-06-07T11:50:28.333Z,998.28
2019-06-07T11:51:28.467Z,998.37
2019-06-07T11:52:28.336Z,998.29
2019-06-07T11:53:28.438Z,998.37
2019-06-07T11:54:28.348Z,998.58
2019-06-07T11:55:28.350Z,998.31
2019-06-07T11:56:28.339Z,998.27
2019-06-07T11:57:28.357Z,998.49
2019-06-07T11:58:28.405Z,998.24
2019-06-07T11:59:28.354Z,998.17
2019-06-07T12:00:28.451Z,998.29
2019-06-07T12:01:28.404Z,998.30
2019-06-07T12:02:28.492Z,998.36
2019-06-07T12:03:28.405Z,998.67
2019-06-07T12:04:34.293Z,998.57
2019-06-07T12:05:28.372Z,998.07
2019-06-07T12:06:28.598Z,998.03
2019-06-07T12:07:28.361Z,998.03
2019-06-07T12:08:28.426Z,997.95
2019-06-07T12:09:28.942Z,997.97
2019-06-07T12:10:41.826Z,997.83
2019-06-07T12:11:28.942Z,998.20
2019-06-07T12:12:28.344Z,997.89
2019-06-07T12:13:28.468Z,997.84
2019-06-07T12:14:28.482Z,997.82
2019-06-07T12:15:28.415Z,997.78
2019-06-07T12:16:28.356Z,997.77
2019-06-07T12:17:28.342Z,997.77
2019-06-07T12:18:28.326Z,997.74
2019-06-07T12:19:28.323Z,997.76
2019-06-07T12:20:28.353Z,997.72
2019-06-07T12:21:32.939Z,997.72
2019-06-07T12:22:28.319Z,997.73
2019-06-07T12:23:28.307Z,997.78
2019-06-07T12:24:28.334Z,997.67
2019-06-07T12:25:28.354Z,997.68